sensor_id;sensor_type;location;lat;lon;timestamp;temperature;humidity
27270;DHT22;14769;56.934;24.176;2022-12-11T00:00:31;-4.40;99.90
27270;DHT22;14769;56.934;24.176;2022-12-11T00:01:32;-4.50;99.90
27270;DHT22;14769;56.934;24.176;2022-12-11T00:02:34;-4.50;99.90
27270;DHT22;14769;56.934;24.176;2022-12-11T00:03:36;-4.50;99.90
27270;DHT22;14769;56.934;24.176;2022-12-11T00:04:38;-4.50;99.90
27270;DHT22;14769;56.934;24.176;2022-12-11T00:05:40;-4.40;99.90
27270;DHT22;14769;56.934;24.176;2022-12-11T00:06:42;-4.50;99.90
27270;DHT22;14769;56.934;24.176;2022-12-11T00:07:44;-4.50;99.90
27270;DHT22;14769;56.934;24.176;2022-12-11T00:08:49;-4.50;99.90
27270;DHT22;14769;56.934;24.176;2022-12-11T00:09:51;-4.50;99.90
27270;DHT22;14769;56.934;24.176;2022-12-11T00:10:53;-4.50;99.90
27270;DHT22;14769;56.934;24.176;2022-12-11T00:11:55;-4.40;99.90
27270;DHT22;14769;56.934;24.176;2022-12-11T00:12:57;-4.50;99.90
27270;DHT22;14769;56.934;24.176;2022-12-11T00:13:59;-4.40;99.90
27270;DHT22;14769;56.934;24.176;2022-12-11T00:15:01;-4.50;99.90
27270;DHT22;14769;56.934;24.176;2022-12-11T00:16:03;-4.50;99.90
27270;DHT22;14769;56.934;24.176;2022-12-11T00:17:05;-4.50;99.90
27270;DHT22;14769;56.934;24.176;2022-12-11T00:18:13;-4.50;99.90
27270;DHT22;14769;56.934;24.176;2022-12-11T00:19:16;-4.50;99.90
27270;DHT22;14769;56.934;24.176;2022-12-11T00:20:18;-4.50;99.90
27270;DHT22;14769;56.934;24.176;2022-12-11T00:21:20;-4.50;99.90
27270;DHT22;14769;56.934;24.176;2022-12-11T00:22:22;-4.50;99.90
27270;DHT22;14769;56.934;24.176;2022-12-11T00:23:23;-4.50;99.90
27270;DHT22;14769;56.934;24.176;2022-12-11T00:24:27;-4.50;99.90
27270;DHT22;14769;56.934;24.176;2022-12-11T00:25:29;-4.50;99.90
27270;DHT22;14769;56.934;24.176;2022-12-11T00:26:30;-4.50;99.90
27270;DHT22;14769;56.934;24.176;2022-12-11T00:27:33;-4.50;99.90
27270;DHT22;14769;56.934;24.176;2022-12-11T00:28:35;-4.50;99.90
27270;DHT22;14769;56.934;24.176;2022-12-11T00:29:37;-4.50;99.90
27270;DHT22;14769;56.934;24.176;2022-12-11T00:30:40;-4.50;99.90
27270;DHT22;14769;56.934;24.176;2022-12-11T00:31:42;-4.50;99.90
27270;DHT22;14769;56.934;24.176;2022-12-11T00:32:45;-4.50;99.90
27270;DHT22;14769;56.934;24.176;2022-12-11T00:33:47;-4.50;99.90
27270;DHT22;14769;56.934;24.176;2022-12-11T00:34:49;-4.50;99.90
27270;DHT22;14769;56.934;24.176;2022-12-11T00:35:51;-4.50;99.90
27270;DHT22;14769;56.934;24.176;2022-12-11T00:36:53;-4.50;99.90
27270;DHT22;14769;56.934;24.176;2022-12-11T00:37:55;-4.40;99.90
27270;DHT22;14769;56.934;24.176;2022-12-11T00:38:57;-4.40;99.90
27270;DHT22;14769;56.934;24.176;2022-12-11T00:39:59;-4.50;99.90
27270;DHT22;14769;56.934;24.176;2022-12-11T00:41:02;-4.50;99.90
27270;DHT22;14769;56.934;24.176;2022-12-11T00:42:07;-4.50;99.90
27270;DHT22;14769;56.934;24.176;2022-12-11T00:43:09;-4.50;99.90
27270;DHT22;14769;56.934;24.176;2022-12-11T00:44:11;-4.50;99.90
27270;DHT22;14769;56.934;24.176;2022-12-11T00:45:13;-4.50;99.90
27270;DHT22;14769;56.934;24.176;2022-12-11T00:46:15;-4.50;99.90
27270;DHT22;14769;56.934;24.176;2022-12-11T00:47:17;-4.50;99.90
27270;DHT22;14769;56.934;24.176;2022-12-11T00:48:19;-4.50;99.90
27270;DHT22;14769;56.934;24.176;2022-12-11T00:49:21;-4.60;99.90
27270;DHT22;14769;56.934;24.176;2022-12-11T00:50:23;-4.60;99.90
27270;DHT22;14769;56.934;24.176;2022-12-11T00:51:25;-4.60;99.90
27270;DHT22;14769;56.934;24.176;2022-12-11T00:52:27;-4.60;99.90
27270;DHT22;14769;56.934;24.176;2022-12-11T00:53:29;-4.60;99.90
27270;DHT22;14769;56.934;24.176;2022-12-11T00:54:33;-4.60;99.90
27270;DHT22;14769;56.934;24.176;2022-12-11T00:55:39;-4.60;99.90
27270;DHT22;14769;56.934;24.176;2022-12-11T00:56:42;-4.60;99.90
27270;DHT22;14769;56.934;24.176;2022-12-11T00:57:44;-4.60;99.90
27270;DHT22;14769;56.934;24.176;2022-12-11T00:58:46;-4.60;99.90
27270;DHT22;14769;56.934;24.176;2022-12-11T00:59:48;-4.70;99.90
27270;DHT22;14769;56.934;24.176;2022-12-11T01:00:51;-4.70;99.90
27270;DHT22;14769;56.934;24.176;2022-12-11T01:01:54;-4.60;99.90
27270;DHT22;14769;56.934;24.176;2022-12-11T01:02:56;-4.60;99.90
27270;DHT22;14769;56.934;24.176;2022-12-11T01:03:58;-4.60;99.90
27270;DHT22;14769;56.934;24.176;2022-12-11T01:04:59;-4.70;99.90
27270;DHT22;14769;56.934;24.176;2022-12-11T01:06:02;-4.70;99.90
27270;DHT22;14769;56.934;24.176;2022-12-11T01:07:04;-4.70;99.90
27270;DHT22;14769;56.934;24.176;2022-12-11T01:08:06;-4.70;99.90
27270;DHT22;14769;56.934;24.176;2022-12-11T01:09:08;-4.70;99.90
27270;DHT22;14769;56.934;24.176;2022-12-11T01:10:29;-4.70;99.90
27270;DHT22;14769;56.934;24.176;2022-12-11T01:11:31;-4.70;99.90
27270;DHT22;14769;56.934;24.176;2022-12-11T01:12:33;-4.70;99.90
27270;DHT22;14769;56.934;24.176;2022-12-11T01:13:36;-4.70;99.90
27270;DHT22;14769;56.934;24.176;2022-12-11T01:14:38;-4.80;99.90
27270;DHT22;14769;56.934;24.176;2022-12-11T01:15:43;-4.80;99.90
27270;DHT22;14769;56.934;24.176;2022-12-11T01:16:45;-4.80;99.90
27270;DHT22;14769;56.934;24.176;2022-12-11T01:17:48;-4.80;99.90
27270;DHT22;14769;56.934;24.176;2022-12-11T01:18:50;-4.80;99.90
27270;DHT22;14769;56.934;24.176;2022-12-11T01:19:55;-4.90;99.90
27270;DHT22;14769;56.934;24.176;2022-12-11T01:20:56;-4.90;99.90
27270;DHT22;14769;56.934;24.176;2022-12-11T01:21:58;-4.90;99.90
27270;DHT22;14769;56.934;24.176;2022-12-11T01:23:01;-4.90;99.90
27270;DHT22;14769;56.934;24.176;2022-12-11T01:24:03;-4.80;99.90
27270;DHT22;14769;56.934;24.176;2022-12-11T01:25:05;-4.80;99.90
27270;DHT22;14769;56.934;24.176;2022-12-11T01:26:13;-4.80;99.90
27270;DHT22;14769;56.934;24.176;2022-12-11T01:27:15;-4.80;99.90
27270;DHT22;14769;56.934;24.176;2022-12-11T01:28:17;-4.80;99.90
27270;DHT22;14769;56.934;24.176;2022-12-11T01:29:19;-4.80;99.90
27270;DHT22;14769;56.934;24.176;2022-12-11T01:30:22;-4.80;99.90
27270;DHT22;14769;56.934;24.176;2022-12-11T01:31:24;-4.80;99.90
27270;DHT22;14769;56.934;24.176;2022-12-11T01:32:27;-4.80;99.90
27270;DHT22;14769;56.934;24.176;2022-12-11T01:33:29;-4.80;99.90
27270;DHT22;14769;56.934;24.176;2022-12-11T01:34:31;-4.80;99.90
27270;DHT22;14769;56.934;24.176;2022-12-11T01:35:33;-4.80;99.90
27270;DHT22;14769;56.934;24.176;2022-12-11T01:36:35;-4.80;99.90
27270;DHT22;14769;56.934;24.176;2022-12-11T01:37:38;-4.80;99.90
27270;DHT22;14769;56.934;24.176;2022-12-11T01:38:40;-4.80;99.90
27270;DHT22;14769;56.934;24.176;2022-12-11T01:39:42;-4.90;99.90
27270;DHT22;14769;56.934;24.176;2022-12-11T01:40:48;-4.90;99.90
27270;DHT22;14769;56.934;24.176;2022-12-11T01:41:56;-4.90;99.90
27270;DHT22;14769;56.934;24.176;2022-12-11T01:42:58;-4.90;99.90
27270;DHT22;14769;56.934;24.176;2022-12-11T01:44:07;-4.90;99.90
27270;DHT22;14769;56.934;24.176;2022-12-11T01:45:26;-4.90;99.90
27270;DHT22;14769;56.934;24.176;2022-12-11T01:46:29;-4.90;99.90
27270;DHT22;14769;56.934;24.176;2022-12-11T01:47:31;-5.00;99.90
27270;DHT22;14769;56.934;24.176;2022-12-11T01:48:33;-5.00;99.90
27270;DHT22;14769;56.934;24.176;2022-12-11T01:49:42;-5.00;99.90
27270;DHT22;14769;56.934;24.176;2022-12-11T01:51:05;-5.00;99.90
27270;DHT22;14769;56.934;24.176;2022-12-11T01:52:15;-5.00;99.90
27270;DHT22;14769;56.934;24.176;2022-12-11T01:53:21;-5.00;99.90
27270;DHT22;14769;56.934;24.176;2022-12-11T01:54:25;-5.10;99.90
27270;DHT22;14769;56.934;24.176;2022-12-11T01:55:28;-5.00;99.90
27270;DHT22;14769;56.934;24.176;2022-12-11T01:56:31;-5.00;99.90
27270;DHT22;14769;56.934;24.176;2022-12-11T01:57:39;-5.00;99.90
27270;DHT22;14769;56.934;24.176;2022-12-11T01:58:46;-5.00;99.90
27270;DHT22;14769;56.934;24.176;2022-12-11T01:59:49;-5.10;99.90
27270;DHT22;14769;56.934;24.176;2022-12-11T02:00:52;-5.10;99.90
27270;DHT22;14769;56.934;24.176;2022-12-11T02:02:06;-5.10;99.90
27270;DHT22;14769;56.934;24.176;2022-12-11T02:03:09;-5.10;99.90
27270;DHT22;14769;56.934;24.176;2022-12-11T02:04:11;-5.10;99.90
27270;DHT22;14769;56.934;24.176;2022-12-11T02:05:14;-5.20;99.90
27270;DHT22;14769;56.934;24.176;2022-12-11T02:07:44;-5.20;99.90
27270;DHT22;14769;56.934;24.176;2022-12-11T02:08:46;-5.20;99.90
27270;DHT22;14769;56.934;24.176;2022-12-11T02:09:49;-5.20;99.90
27270;DHT22;14769;56.934;24.176;2022-12-11T02:11:08;-5.20;99.90
27270;DHT22;14769;56.934;24.176;2022-12-11T02:12:34;-5.20;99.90
27270;DHT22;14769;56.934;24.176;2022-12-11T02:16:18;-5.20;99.90
27270;DHT22;14769;56.934;24.176;2022-12-11T02:17:28;-5.10;99.90
27270;DHT22;14769;56.934;24.176;2022-12-11T02:18:45;-5.20;99.90
27270;DHT22;14769;56.934;24.176;2022-12-11T02:21:25;-5.20;99.90
27270;DHT22;14769;56.934;24.176;2022-12-11T02:22:57;-5.20;99.90
27270;DHT22;14769;56.934;24.176;2022-12-11T02:28:38;-5.30;99.90
27270;DHT22;14769;56.934;24.176;2022-12-11T02:29:48;-5.30;99.90
27270;DHT22;14769;56.934;24.176;2022-12-11T02:32:46;-5.40;99.90
27270;DHT22;14769;56.934;24.176;2022-12-11T02:36:28;-5.40;99.90
27270;DHT22;14769;56.934;24.176;2022-12-11T02:37:32;-5.40;99.90
27270;DHT22;14769;56.934;24.176;2022-12-11T02:38:38;-5.40;99.90
27270;DHT22;14769;56.934;24.176;2022-12-11T02:39:42;-5.30;99.90
27270;DHT22;14769;56.934;24.176;2022-12-11T02:40:46;-5.30;99.90
27270;DHT22;14769;56.934;24.176;2022-12-11T02:41:50;-5.30;99.90
27270;DHT22;14769;56.934;24.176;2022-12-11T02:42:53;-5.30;99.90
27270;DHT22;14769;56.934;24.176;2022-12-11T02:43:58;-5.30;99.90
27270;DHT22;14769;56.934;24.176;2022-12-11T02:45:02;-5.30;99.90
27270;DHT22;14769;56.934;24.176;2022-12-11T02:46:07;-5.30;99.90
27270;DHT22;14769;56.934;24.176;2022-12-11T02:47:12;-5.30;99.90
27270;DHT22;14769;56.934;24.176;2022-12-11T02:48:16;-5.30;99.90
27270;DHT22;14769;56.934;24.176;2022-12-11T02:49:19;-5.30;99.90
27270;DHT22;14769;56.934;24.176;2022-12-11T02:50:22;-5.30;99.90
27270;DHT22;14769;56.934;24.176;2022-12-11T02:51:28;-5.30;99.90
27270;DHT22;14769;56.934;24.176;2022-12-11T02:52:32;-5.30;99.90
27270;DHT22;14769;56.934;24.176;2022-12-11T02:53:37;-5.30;99.90
27270;DHT22;14769;56.934;24.176;2022-12-11T02:54:42;-5.30;99.90
27270;DHT22;14769;56.934;24.176;2022-12-11T02:55:46;-5.30;99.90
27270;DHT22;14769;56.934;24.176;2022-12-11T02:56:56;-5.40;99.90
27270;DHT22;14769;56.934;24.176;2022-12-11T02:58:13;-5.30;99.90
27270;DHT22;14769;56.934;24.176;2022-12-11T02:59:20;-5.30;99.90
27270;DHT22;14769;56.934;24.176;2022-12-11T03:00:24;-5.30;99.90
27270;DHT22;14769;56.934;24.176;2022-12-11T03:01:26;-5.30;99.90
27270;DHT22;14769;56.934;24.176;2022-12-11T03:02:28;-5.30;99.90
27270;DHT22;14769;56.934;24.176;2022-12-11T03:03:31;-5.20;99.90
27270;DHT22;14769;56.934;24.176;2022-12-11T03:04:34;-5.20;99.90
27270;DHT22;14769;56.934;24.176;2022-12-11T03:05:37;-5.20;99.90
27270;DHT22;14769;56.934;24.176;2022-12-11T03:06:42;-5.20;99.90
27270;DHT22;14769;56.934;24.176;2022-12-11T03:07:47;-5.20;99.90
27270;DHT22;14769;56.934;24.176;2022-12-11T03:08:50;-5.10;99.90
27270;DHT22;14769;56.934;24.176;2022-12-11T03:09:52;-5.10;99.90
27270;DHT22;14769;56.934;24.176;2022-12-11T03:10:54;-5.20;99.90
27270;DHT22;14769;56.934;24.176;2022-12-11T03:11:56;-5.10;99.90
27270;DHT22;14769;56.934;24.176;2022-12-11T03:12:59;-5.20;99.90
27270;DHT22;14769;56.934;24.176;2022-12-11T03:14:02;-5.20;99.90
27270;DHT22;14769;56.934;24.176;2022-12-11T03:15:07;-5.20;99.90
27270;DHT22;14769;56.934;24.176;2022-12-11T03:16:28;-5.20;99.90
27270;DHT22;14769;56.934;24.176;2022-12-11T03:19:40;-5.30;99.90
27270;DHT22;14769;56.934;24.176;2022-12-11T03:21:32;-5.30;99.90
27270;DHT22;14769;56.934;24.176;2022-12-11T03:22:44;-5.30;99.90
27270;DHT22;14769;56.934;24.176;2022-12-11T03:25:21;-5.30;99.90
27270;DHT22;14769;56.934;24.176;2022-12-11T03:26:23;-5.30;99.90
27270;DHT22;14769;56.934;24.176;2022-12-11T03:27:48;-5.30;99.90
27270;DHT22;14769;56.934;24.176;2022-12-11T03:28:58;-5.30;99.90
27270;DHT22;14769;56.934;24.176;2022-12-11T03:30:09;-5.20;99.90
27270;DHT22;14769;56.934;24.176;2022-12-11T03:31:30;-5.20;99.90
27270;DHT22;14769;56.934;24.176;2022-12-11T03:32:52;-5.20;99.90
27270;DHT22;14769;56.934;24.176;2022-12-11T03:34:00;-5.20;99.90
27270;DHT22;14769;56.934;24.176;2022-12-11T03:36:24;-5.20;99.90
27270;DHT22;14769;56.934;24.176;2022-12-11T03:37:28;-5.20;99.90
27270;DHT22;14769;56.934;24.176;2022-12-11T03:38:37;-5.20;99.90
27270;DHT22;14769;56.934;24.176;2022-12-11T03:39:46;-5.30;99.90
27270;DHT22;14769;56.934;24.176;2022-12-11T03:40:52;-5.20;99.90
27270;DHT22;14769;56.934;24.176;2022-12-11T03:41:56;-5.20;99.90
27270;DHT22;14769;56.934;24.176;2022-12-11T03:42:59;-5.30;99.90
27270;DHT22;14769;56.934;24.176;2022-12-11T03:44:02;-5.20;99.90
27270;DHT22;14769;56.934;24.176;2022-12-11T03:45:05;-5.20;99.90
27270;DHT22;14769;56.934;24.176;2022-12-11T03:46:10;-5.20;99.90
27270;DHT22;14769;56.934;24.176;2022-12-11T03:47:18;-5.20;99.90
27270;DHT22;14769;56.934;24.176;2022-12-11T03:48:22;-5.20;99.90
27270;DHT22;14769;56.934;24.176;2022-12-11T03:49:28;-5.20;99.90
27270;DHT22;14769;56.934;24.176;2022-12-11T03:50:33;-5.30;99.90
27270;DHT22;14769;56.934;24.176;2022-12-11T03:51:36;-5.30;99.90
27270;DHT22;14769;56.934;24.176;2022-12-11T03:52:40;-5.30;99.90
27270;DHT22;14769;56.934;24.176;2022-12-11T03:53:47;-5.30;99.90
27270;DHT22;14769;56.934;24.176;2022-12-11T03:54:49;-5.30;99.90
27270;DHT22;14769;56.934;24.176;2022-12-11T03:55:53;-5.30;99.90
27270;DHT22;14769;56.934;24.176;2022-12-11T03:56:58;-5.40;99.90
27270;DHT22;14769;56.934;24.176;2022-12-11T03:58:02;-5.40;99.90
27270;DHT22;14769;56.934;24.176;2022-12-11T03:59:04;-5.40;99.90
27270;DHT22;14769;56.934;24.176;2022-12-11T04:00:08;-5.40;99.90
27270;DHT22;14769;56.934;24.176;2022-12-11T04:01:11;-5.40;99.90
27270;DHT22;14769;56.934;24.176;2022-12-11T04:02:13;-5.40;99.90
27270;DHT22;14769;56.934;24.176;2022-12-11T04:03:15;-5.40;99.90
27270;DHT22;14769;56.934;24.176;2022-12-11T04:04:19;-5.40;99.90
27270;DHT22;14769;56.934;24.176;2022-12-11T04:05:21;-5.50;99.90
27270;DHT22;14769;56.934;24.176;2022-12-11T04:06:22;-5.50;99.90
27270;DHT22;14769;56.934;24.176;2022-12-11T04:07:24;-5.50;99.90
27270;DHT22;14769;56.934;24.176;2022-12-11T04:08:26;-5.50;99.90
27270;DHT22;14769;56.934;24.176;2022-12-11T04:09:28;-5.40;99.90
27270;DHT22;14769;56.934;24.176;2022-12-11T04:10:30;-5.50;99.90
27270;DHT22;14769;56.934;24.176;2022-12-11T04:11:32;-5.50;99.90
27270;DHT22;14769;56.934;24.176;2022-12-11T04:12:37;-5.50;99.90
27270;DHT22;14769;56.934;24.176;2022-12-11T04:13:40;-5.50;99.90
27270;DHT22;14769;56.934;24.176;2022-12-11T04:14:42;-5.50;99.90
27270;DHT22;14769;56.934;24.176;2022-12-11T04:16:02;-5.50;99.90
27270;DHT22;14769;56.934;24.176;2022-12-11T04:17:04;-5.50;99.90
27270;DHT22;14769;56.934;24.176;2022-12-11T04:18:07;-5.50;99.90
27270;DHT22;14769;56.934;24.176;2022-12-11T04:19:27;-5.50;99.90
27270;DHT22;14769;56.934;24.176;2022-12-11T04:20:48;-5.50;99.90
27270;DHT22;14769;56.934;24.176;2022-12-11T04:22:13;-5.50;99.90
27270;DHT22;14769;56.934;24.176;2022-12-11T04:23:34;-5.50;99.90
27270;DHT22;14769;56.934;24.176;2022-12-11T04:24:54;-5.40;99.90
27270;DHT22;14769;56.934;24.176;2022-12-11T04:26:22;-5.40;99.90
27270;DHT22;14769;56.934;24.176;2022-12-11T04:27:24;-5.40;99.90
27270;DHT22;14769;56.934;24.176;2022-12-11T04:28:46;-5.50;99.90
27270;DHT22;14769;56.934;24.176;2022-12-11T04:29:48;-5.50;99.90
27270;DHT22;14769;56.934;24.176;2022-12-11T04:30:50;-5.40;99.90
27270;DHT22;14769;56.934;24.176;2022-12-11T04:31:52;-5.40;99.90
27270;DHT22;14769;56.934;24.176;2022-12-11T04:32:54;-5.40;99.90
27270;DHT22;14769;56.934;24.176;2022-12-11T04:33:56;-5.30;99.90
27270;DHT22;14769;56.934;24.176;2022-12-11T04:34:57;-5.40;99.90
27270;DHT22;14769;56.934;24.176;2022-12-11T04:35:59;-5.30;99.90
27270;DHT22;14769;56.934;24.176;2022-12-11T04:37:01;-5.30;99.90
27270;DHT22;14769;56.934;24.176;2022-12-11T04:38:03;-5.30;99.90
27270;DHT22;14769;56.934;24.176;2022-12-11T04:39:05;-5.40;99.90
27270;DHT22;14769;56.934;24.176;2022-12-11T04:40:11;-5.30;99.90
27270;DHT22;14769;56.934;24.176;2022-12-11T04:41:14;-5.30;99.90
27270;DHT22;14769;56.934;24.176;2022-12-11T04:42:16;-5.30;99.90
27270;DHT22;14769;56.934;24.176;2022-12-11T04:43:18;-5.40;99.90
27270;DHT22;14769;56.934;24.176;2022-12-11T04:44:20;-5.40;99.90
27270;DHT22;14769;56.934;24.176;2022-12-11T04:45:22;-5.30;99.90
27270;DHT22;14769;56.934;24.176;2022-12-11T04:46:24;-5.30;99.90
27270;DHT22;14769;56.934;24.176;2022-12-11T04:47:26;-5.30;99.90
27270;DHT22;14769;56.934;24.176;2022-12-11T04:48:28;-5.30;99.90
27270;DHT22;14769;56.934;24.176;2022-12-11T04:49:30;-5.30;99.90
27270;DHT22;14769;56.934;24.176;2022-12-11T04:50:32;-5.30;99.90
27270;DHT22;14769;56.934;24.176;2022-12-11T04:51:34;-5.30;99.90
27270;DHT22;14769;56.934;24.176;2022-12-11T04:52:36;-5.30;99.90
27270;DHT22;14769;56.934;24.176;2022-12-11T04:53:38;-5.30;99.90
27270;DHT22;14769;56.934;24.176;2022-12-11T04:54:40;-5.30;99.90
27270;DHT22;14769;56.934;24.176;2022-12-11T04:55:42;-5.30;99.90
27270;DHT22;14769;56.934;24.176;2022-12-11T04:56:44;-5.30;99.90
27270;DHT22;14769;56.934;24.176;2022-12-11T04:57:46;-5.30;99.90
27270;DHT22;14769;56.934;24.176;2022-12-11T04:58:47;-5.30;99.90
27270;DHT22;14769;56.934;24.176;2022-12-11T04:59:49;-5.30;99.90
27270;DHT22;14769;56.934;24.176;2022-12-11T05:00:51;-5.40;99.90
27270;DHT22;14769;56.934;24.176;2022-12-11T05:01:53;-5.40;99.90
27270;DHT22;14769;56.934;24.176;2022-12-11T05:02:56;-5.40;99.90
27270;DHT22;14769;56.934;24.176;2022-12-11T05:04:00;-5.40;99.90
27270;DHT22;14769;56.934;24.176;2022-12-11T05:05:04;-5.40;99.90
27270;DHT22;14769;56.934;24.176;2022-12-11T05:06:07;-5.40;99.90
27270;DHT22;14769;56.934;24.176;2022-12-11T05:07:09;-5.40;99.90
27270;DHT22;14769;56.934;24.176;2022-12-11T05:08:11;-5.40;99.90
27270;DHT22;14769;56.934;24.176;2022-12-11T05:09:12;-5.40;99.90
27270;DHT22;14769;56.934;24.176;2022-12-11T05:10:15;-5.40;99.90
27270;DHT22;14769;56.934;24.176;2022-12-11T05:11:17;-5.40;99.90
27270;DHT22;14769;56.934;24.176;2022-12-11T05:12:19;-5.30;99.90
27270;DHT22;14769;56.934;24.176;2022-12-11T05:13:21;-5.30;99.90
27270;DHT22;14769;56.934;24.176;2022-12-11T05:14:22;-5.30;99.90
27270;DHT22;14769;56.934;24.176;2022-12-11T05:15:24;-5.30;99.90
27270;DHT22;14769;56.934;24.176;2022-12-11T05:16:27;-5.30;99.90
27270;DHT22;14769;56.934;24.176;2022-12-11T05:17:29;-5.30;99.90
27270;DHT22;14769;56.934;24.176;2022-12-11T05:18:31;-5.30;99.90
27270;DHT22;14769;56.934;24.176;2022-12-11T05:19:33;-5.30;99.90
27270;DHT22;14769;56.934;24.176;2022-12-11T05:20:35;-5.30;99.90
27270;DHT22;14769;56.934;24.176;2022-12-11T05:21:37;-5.30;99.90
27270;DHT22;14769;56.934;24.176;2022-12-11T05:22:39;-5.30;99.90
27270;DHT22;14769;56.934;24.176;2022-12-11T05:23:41;-5.30;99.90
27270;DHT22;14769;56.934;24.176;2022-12-11T05:24:44;-5.30;99.90
27270;DHT22;14769;56.934;24.176;2022-12-11T05:25:57;-5.30;99.90
27270;DHT22;14769;56.934;24.176;2022-12-11T05:26:59;-5.30;99.90
27270;DHT22;14769;56.934;24.176;2022-12-11T05:28:01;-5.30;99.90
27270;DHT22;14769;56.934;24.176;2022-12-11T05:29:03;-5.40;99.90
27270;DHT22;14769;56.934;24.176;2022-12-11T05:30:06;-5.30;99.90
27270;DHT22;14769;56.934;24.176;2022-12-11T05:31:13;-5.30;99.90
27270;DHT22;14769;56.934;24.176;2022-12-11T05:32:16;-5.30;99.90
27270;DHT22;14769;56.934;24.176;2022-12-11T05:33:18;-5.30;99.90
27270;DHT22;14769;56.934;24.176;2022-12-11T05:34:19;-5.30;99.90
27270;DHT22;14769;56.934;24.176;2022-12-11T05:35:21;-5.30;99.90
27270;DHT22;14769;56.934;24.176;2022-12-11T05:36:26;-5.30;99.90
27270;DHT22;14769;56.934;24.176;2022-12-11T05:37:28;-5.30;99.90
27270;DHT22;14769;56.934;24.176;2022-12-11T05:38:30;-5.30;99.90
27270;DHT22;14769;56.934;24.176;2022-12-11T05:39:32;-5.30;99.90
27270;DHT22;14769;56.934;24.176;2022-12-11T05:40:34;-5.30;99.90
27270;DHT22;14769;56.934;24.176;2022-12-11T05:41:35;-5.40;99.90
27270;DHT22;14769;56.934;24.176;2022-12-11T05:42:37;-5.40;99.90
27270;DHT22;14769;56.934;24.176;2022-12-11T05:43:39;-5.40;99.90
27270;DHT22;14769;56.934;24.176;2022-12-11T05:44:41;-5.40;99.90
27270;DHT22;14769;56.934;24.176;2022-12-11T05:45:43;-5.40;99.90
27270;DHT22;14769;56.934;24.176;2022-12-11T05:46:44;-5.40;99.90
27270;DHT22;14769;56.934;24.176;2022-12-11T05:47:46;-5.40;99.90
27270;DHT22;14769;56.934;24.176;2022-12-11T05:48:51;-5.40;99.90
27270;DHT22;14769;56.934;24.176;2022-12-11T05:49:53;-5.40;99.90
27270;DHT22;14769;56.934;24.176;2022-12-11T05:50:59;-5.40;99.90
27270;DHT22;14769;56.934;24.176;2022-12-11T05:52:01;-5.40;99.90
27270;DHT22;14769;56.934;24.176;2022-12-11T05:53:03;-5.40;99.90
27270;DHT22;14769;56.934;24.176;2022-12-11T05:54:06;-5.40;99.90
27270;DHT22;14769;56.934;24.176;2022-12-11T05:55:08;-5.40;99.90
27270;DHT22;14769;56.934;24.176;2022-12-11T05:56:19;-5.40;99.90
27270;DHT22;14769;56.934;24.176;2022-12-11T05:57:21;-5.40;99.90
27270;DHT22;14769;56.934;24.176;2022-12-11T05:58:23;-5.50;99.90
27270;DHT22;14769;56.934;24.176;2022-12-11T05:59:25;-5.40;99.90
27270;DHT22;14769;56.934;24.176;2022-12-11T06:00:27;-5.40;99.90
27270;DHT22;14769;56.934;24.176;2022-12-11T06:01:39;-5.40;99.90
27270;DHT22;14769;56.934;24.176;2022-12-11T06:02:41;-5.40;99.90
27270;DHT22;14769;56.934;24.176;2022-12-11T06:03:44;-5.30;99.90
27270;DHT22;14769;56.934;24.176;2022-12-11T06:04:46;-5.30;99.90
27270;DHT22;14769;56.934;24.176;2022-12-11T06:05:47;-5.20;99.90
27270;DHT22;14769;56.934;24.176;2022-12-11T06:06:53;-5.30;99.90
27270;DHT22;14769;56.934;24.176;2022-12-11T06:07:55;-5.20;99.90
27270;DHT22;14769;56.934;24.176;2022-12-11T06:08:58;-5.20;99.90
27270;DHT22;14769;56.934;24.176;2022-12-11T06:10:00;-5.20;99.90
27270;DHT22;14769;56.934;24.176;2022-12-11T06:11:04;-5.20;99.90
27270;DHT22;14769;56.934;24.176;2022-12-11T06:12:06;-5.10;99.90
27270;DHT22;14769;56.934;24.176;2022-12-11T06:13:08;-5.10;99.90
27270;DHT22;14769;56.934;24.176;2022-12-11T06:14:11;-5.10;99.90
27270;DHT22;14769;56.934;24.176;2022-12-11T06:15:13;-5.10;99.90
27270;DHT22;14769;56.934;24.176;2022-12-11T06:16:15;-5.10;99.90
27270;DHT22;14769;56.934;24.176;2022-12-11T06:17:17;-5.10;99.90
27270;DHT22;14769;56.934;24.176;2022-12-11T06:18:19;-5.10;99.90
27270;DHT22;14769;56.934;24.176;2022-12-11T06:19:21;-5.00;99.90
27270;DHT22;14769;56.934;24.176;2022-12-11T06:20:23;-5.10;99.90
27270;DHT22;14769;56.934;24.176;2022-12-11T06:21:28;-5.00;99.90
27270;DHT22;14769;56.934;24.176;2022-12-11T06:22:30;-5.00;99.90
27270;DHT22;14769;56.934;24.176;2022-12-11T06:23:32;-5.10;99.90
27270;DHT22;14769;56.934;24.176;2022-12-11T06:24:34;-5.00;99.90
27270;DHT22;14769;56.934;24.176;2022-12-11T06:25:39;-5.10;99.90
27270;DHT22;14769;56.934;24.176;2022-12-11T06:26:41;-5.10;99.90
27270;DHT22;14769;56.934;24.176;2022-12-11T06:27:43;-5.10;99.90
27270;DHT22;14769;56.934;24.176;2022-12-11T06:28:46;-5.10;99.90
27270;DHT22;14769;56.934;24.176;2022-12-11T06:29:48;-5.10;99.90
27270;DHT22;14769;56.934;24.176;2022-12-11T06:30:49;-5.10;99.90
27270;DHT22;14769;56.934;24.176;2022-12-11T06:31:51;-5.00;99.90
27270;DHT22;14769;56.934;24.176;2022-12-11T06:32:53;-5.10;99.90
27270;DHT22;14769;56.934;24.176;2022-12-11T06:33:55;-5.10;99.90
27270;DHT22;14769;56.934;24.176;2022-12-11T06:34:57;-5.10;99.90
27270;DHT22;14769;56.934;24.176;2022-12-11T06:36:07;-5.10;99.90
27270;DHT22;14769;56.934;24.176;2022-12-11T06:37:09;-5.10;99.90
27270;DHT22;14769;56.934;24.176;2022-12-11T06:38:12;-5.10;99.90
27270;DHT22;14769;56.934;24.176;2022-12-11T06:39:14;-5.10;99.90
27270;DHT22;14769;56.934;24.176;2022-12-11T06:40:16;-5.10;99.90
27270;DHT22;14769;56.934;24.176;2022-12-11T06:41:18;-5.10;99.90
27270;DHT22;14769;56.934;24.176;2022-12-11T06:42:19;-5.10;99.90
27270;DHT22;14769;56.934;24.176;2022-12-11T06:43:22;-5.10;99.90
27270;DHT22;14769;56.934;24.176;2022-12-11T06:44:24;-5.10;99.90
27270;DHT22;14769;56.934;24.176;2022-12-11T06:45:26;-5.10;99.90
27270;DHT22;14769;56.934;24.176;2022-12-11T06:46:28;-5.10;99.90
27270;DHT22;14769;56.934;24.176;2022-12-11T06:47:30;-5.10;99.90
27270;DHT22;14769;56.934;24.176;2022-12-11T06:48:33;-5.10;99.90
27270;DHT22;14769;56.934;24.176;2022-12-11T06:49:35;-5.10;99.90
27270;DHT22;14769;56.934;24.176;2022-12-11T06:50:37;-5.10;99.90
27270;DHT22;14769;56.934;24.176;2022-12-11T06:51:39;-5.10;99.90
27270;DHT22;14769;56.934;24.176;2022-12-11T06:52:41;-5.10;99.90
27270;DHT22;14769;56.934;24.176;2022-12-11T06:53:43;-5.10;99.90
27270;DHT22;14769;56.934;24.176;2022-12-11T06:54:45;-5.10;99.90
27270;DHT22;14769;56.934;24.176;2022-12-11T06:55:47;-5.10;99.90
27270;DHT22;14769;56.934;24.176;2022-12-11T06:56:49;-5.20;99.90
27270;DHT22;14769;56.934;24.176;2022-12-11T06:57:51;-5.20;99.90
27270;DHT22;14769;56.934;24.176;2022-12-11T06:58:53;-5.20;99.90